createdAt,value
2024-02-26T00:03:24.766Z,9.70
2024-02-26T00:08:28.221Z,9.70
2024-02-26T00:13:31.643Z,9.70
2024-02-26T00:18:35.547Z,9.70
2024-02-26T00:23:39.183Z,9.70
2024-02-26T00:28:42.743Z,9.70
2024-02-26T00:33:46.443Z,9.70
2024-02-26T00:38:52.312Z,9.70
2024-02-26T00:43:55.612Z,9.70
2024-02-26T00:48:59.299Z,9.70
2024-02-26T00:54:03.544Z,9.70
2024-02-26T00:59:07.493Z,9.70
2024-02-26T01:04:10.871Z,9.70
2024-02-26T01:09:14.403Z,9.70
2024-02-26T01:14:17.906Z,9.70
2024-02-26T01:19:22.299Z,9.70
2024-02-26T01:24:25.797Z,9.70
2024-02-26T01:29:29.361Z,9.70
2024-02-26T01:34:33.260Z,9.70
2024-02-26T01:39:36.928Z,9.60
2024-02-26T01:44:41.811Z,9.60
2024-02-26T01:49:45.376Z,9.60
2024-02-26T01:54:49.149Z,9.60
2024-02-26T01:59:52.617Z,9.60
2024-02-26T02:04:56.183Z,9.60
2024-02-26T02:10:00.062Z,9.60
2024-02-26T02:15:03.985Z,9.60
2024-02-26T02:20:18.114Z,9.60
2024-02-26T02:25:21.547Z,9.60
2024-02-26T02:30:30.653Z,9.70
2024-02-26T02:35:34.350Z,9.70
2024-02-26T02:40:37.697Z,9.70
2024-02-26T02:45:41.108Z,9.70
2024-02-26T02:50:44.699Z,9.70
2024-02-26T02:55:47.992Z,9.70
2024-02-26T03:00:51.397Z,9.60
2024-02-26T03:05:54.685Z,9.60
2024-02-26T03:11:00.244Z,9.60
2024-02-26T03:16:07.490Z,9.60
2024-02-26T03:21:10.990Z,9.60
2024-02-26T03:26:16.050Z,9.60
2024-02-26T03:31:19.467Z,9.70
2024-02-26T03:36:23.114Z,9.70
2024-02-26T03:41:26.755Z,9.70
2024-02-26T03:46:30.311Z,9.70
2024-02-26T03:51:34.218Z,9.70
2024-02-26T03:56:37.610Z,9.70
2024-02-26T04:01:46.451Z,9.70
2024-02-26T04:06:50.045Z,9.70
2024-02-26T04:11:53.669Z,9.70
2024-02-26T04:16:56.993Z,9.70
2024-02-26T04:22:01.178Z,9.70
2024-02-26T04:27:04.736Z,9.60
2024-02-26T04:32:08.286Z,9.60
2024-02-26T04:37:11.699Z,9.60
2024-02-26T04:42:15.364Z,9.60
2024-02-26T04:47:18.730Z,9.60
2024-02-26T04:52:22.738Z,9.70
2024-02-26T04:57:27.357Z,9.60
2024-02-26T05:02:33.357Z,9.70
2024-02-26T05:07:42.812Z,9.70
2024-02-26T05:12:46.317Z,9.70
2024-02-26T05:17:49.890Z,9.60
2024-02-26T05:22:53.279Z,9.70
2024-02-26T05:27:56.709Z,9.70
2024-02-26T05:33:00.358Z,9.70
2024-02-26T05:38:03.919Z,9.70
2024-02-26T05:43:07.325Z,9.70
2024-02-26T05:48:10.921Z,9.70
2024-02-26T05:53:14.649Z,9.60
2024-02-26T05:58:17.934Z,9.60
2024-02-26T06:03:21.626Z,9.60
2024-02-26T06:08:25.304Z,9.60
2024-02-26T06:13:28.830Z,9.60
2024-02-26T06:18:32.460Z,9.70
2024-02-26T06:23:36.000Z,9.70
2024-02-26T06:28:41.983Z,9.70
2024-02-26T06:33:46.548Z,9.70
2024-02-26T06:38:50.578Z,9.80
2024-02-26T06:43:54.970Z,9.90
2024-02-26T06:48:58.882Z,9.90
2024-02-26T06:54:02.618Z,10.00
2024-02-26T06:59:06.013Z,10.10
2024-02-26T07:04:12.263Z,10.10
2024-02-26T07:09:16.776Z,10.20
2024-02-26T07:14:20.258Z,10.30
2024-02-26T07:19:23.977Z,10.40
2024-02-26T07:24:27.563Z,10.50
2024-02-26T07:29:31.082Z,10.50
2024-02-26T07:34:34.553Z,10.60
2024-02-26T07:39:38.392Z,10.60
2024-02-26T07:44:44.221Z,10.60
2024-02-26T07:49:47.779Z,10.70
2024-02-26T07:54:51.254Z,10.70
2024-02-26T07:59:54.732Z,10.80
2024-02-26T08:04:58.099Z,10.90
2024-02-26T08:10:01.771Z,10.90
2024-02-26T08:15:06.469Z,11.00
2024-02-26T08:20:11.852Z,11.10
2024-02-26T08:25:17.116Z,11.10
2024-02-26T08:30:20.608Z,11.20
2024-02-26T08:35:24.121Z,11.40
2024-02-26T08:40:27.760Z,11.50
2024-02-26T08:45:31.169Z,11.60
2024-02-26T08:50:34.946Z,11.90
2024-02-26T08:55:38.416Z,12.10
2024-02-26T09:00:42.203Z,12.20
2024-02-26T09:05:45.900Z,12.20
2024-02-26T09:10:49.305Z,12.20
2024-02-26T09:15:52.816Z,12.20
2024-02-26T09:20:56.515Z,12.20
2024-02-26T09:25:59.935Z,12.20
2024-02-26T09:31:03.631Z,12.30
2024-02-26T09:36:07.582Z,12.40
2024-02-26T09:41:19.906Z,12.50
2024-02-26T09:46:24.920Z,12.60
2024-02-26T09:51:28.632Z,12.70
2024-02-26T09:56:33.758Z,12.90
2024-02-26T10:01:40.041Z,13.00
2024-02-26T10:06:45.891Z,13.30
2024-02-26T10:11:50.817Z,13.40
2024-02-26T10:16:55.225Z,13.40
2024-02-26T10:21:59.833Z,13.40
2024-02-26T10:27:03.948Z,13.50
2024-02-26T10:32:07.552Z,13.50
2024-02-26T10:37:11.465Z,13.70
2024-02-26T10:42:16.304Z,13.80
2024-02-26T10:47:21.271Z,14.00
2024-02-26T10:52:26.931Z,14.10
2024-02-26T10:57:36.396Z,14.40
2024-02-26T11:02:41.082Z,14.70
2024-02-26T11:07:45.608Z,15.00
2024-02-26T11:12:50.817Z,15.20
2024-02-26T11:17:56.618Z,15.40
2024-02-26T11:23:00.102Z,15.50
2024-02-26T11:28:09.892Z,15.50
2024-02-26T11:33:14.970Z,15.60
2024-02-26T11:38:25.321Z,15.80
2024-02-26T11:44:04.304Z,16.10
2024-02-26T11:49:29.167Z,16.10
2024-02-26T11:54:54.402Z,16.10
2024-02-26T12:00:17.975Z,16.10
2024-02-26T12:05:26.036Z,16.10
2024-02-26T12:10:36.913Z,16.00
2024-02-26T12:15:59.345Z,15.90
2024-02-26T12:21:05.824Z,15.70
2024-02-26T12:26:11.942Z,15.60
2024-02-26T12:31:15.509Z,15.40
2024-02-26T12:36:18.798Z,15.20
2024-02-26T12:41:23.860Z,15.20
2024-02-26T12:46:27.333Z,15.20
2024-02-26T12:51:31.229Z,15.10
2024-02-26T12:56:35.813Z,15.00
2024-02-26T13:01:39.693Z,14.90
2024-02-26T13:06:43.368Z,14.90
2024-02-26T13:11:49.024Z,15.00
2024-02-26T13:16:59.346Z,15.10
2024-02-26T13:22:10.423Z,15.40
2024-02-26T13:27:13.689Z,15.70
2024-02-26T13:32:17.325Z,15.90
2024-02-26T13:37:21.471Z,16.00
2024-02-26T13:42:24.827Z,16.10
2024-02-26T13:47:28.252Z,16.10
2024-02-26T13:52:34.208Z,16.10
2024-02-26T13:57:37.775Z,16.00
2024-02-26T14:02:41.318Z,15.80
2024-02-26T14:07:45.019Z,15.70
2024-02-26T14:12:48.648Z,15.50
2024-02-26T14:17:58.407Z,15.40
2024-02-26T14:23:02.231Z,15.40
2024-02-26T14:28:06.193Z,15.40
2024-02-26T14:33:10.807Z,15.40
2024-02-26T14:38:14.623Z,15.40
2024-02-26T14:43:18.044Z,15.40
2024-02-26T14:48:21.584Z,15.50
2024-02-26T14:53:25.739Z,15.60
2024-02-26T14:58:29.097Z,15.50
2024-02-26T15:03:32.639Z,15.50
2024-02-26T15:08:36.055Z,15.40
2024-02-26T15:13:40.935Z,15.30
2024-02-26T15:18:44.480Z,15.20
2024-02-26T15:23:58.885Z,15.00
2024-02-26T15:29:09.924Z,14.90
2024-02-26T15:34:13.660Z,14.80
2024-02-26T15:39:18.405Z,14.70
2024-02-26T15:44:21.592Z,14.60
2024-02-26T15:49:25.324Z,14.50
2024-02-26T15:54:28.882Z,14.40
2024-02-26T15:59:32.369Z,14.30
2024-02-26T16:04:35.877Z,14.20
2024-02-26T16:09:40.098Z,14.00
2024-02-26T16:14:51.894Z,13.80
2024-02-26T16:19:55.564Z,13.60
2024-02-26T16:24:59.452Z,13.40
2024-02-26T16:30:06.052Z,13.10
2024-02-26T16:35:12.110Z,12.90
2024-02-26T16:40:18.445Z,12.70
2024-02-26T16:45:21.996Z,12.50
2024-02-26T16:50:27.393Z,12.30
2024-02-26T16:55:30.952Z,12.10
2024-02-26T17:00:35.159Z,12.00
2024-02-26T17:05:38.445Z,11.90
2024-02-26T17:10:42.245Z,11.80
2024-02-26T17:15:45.650Z,11.70
2024-02-26T17:20:49.204Z,11.70
2024-02-26T17:25:52.452Z,11.60
2024-02-26T17:30:55.959Z,11.60
2024-02-26T17:35:59.461Z,11.50
2024-02-26T17:41:04.529Z,11.30
2024-02-26T17:46:09.125Z,11.20
2024-02-26T17:51:12.855Z,11.10
2024-02-26T17:56:17.105Z,10.90
2024-02-26T18:01:20.955Z,10.80
2024-02-26T18:06:25.183Z,10.80
2024-02-26T18:11:29.470Z,10.70
2024-02-26T18:16:33.481Z,10.70
2024-02-26T18:21:36.940Z,10.70
2024-02-26T18:26:43.940Z,10.60
2024-02-26T18:31:48.672Z,10.60
2024-02-26T18:36:54.629Z,10.50
2024-02-26T18:41:58.748Z,10.40
2024-02-26T18:47:02.497Z,10.30
2024-02-26T18:52:06.544Z,10.10
2024-02-26T18:57:11.249Z,10.00
2024-02-26T19:02:14.807Z,10.00
2024-02-26T19:07:18.594Z,10.00
2024-02-26T19:12:27.447Z,10.00
2024-02-26T19:17:30.875Z,10.00
2024-02-26T19:22:34.350Z,9.90
2024-02-26T19:27:38.770Z,9.70
2024-02-26T19:32:42.523Z,9.60
2024-02-26T19:37:46.006Z,9.50
2024-02-26T19:42:49.952Z,9.40
2024-02-26T19:47:53.388Z,9.40
2024-02-26T19:52:59.591Z,9.20
2024-02-26T19:58:04.474Z,9.10
2024-02-26T20:03:08.152Z,9.00
2024-02-26T20:08:11.861Z,8.90
2024-02-26T20:13:15.162Z,8.90
2024-02-26T20:18:18.705Z,8.80
2024-02-26T20:23:22.176Z,8.80
2024-02-26T20:28:25.822Z,8.80
2024-02-26T20:33:29.543Z,8.80
2024-02-26T20:38:32.876Z,8.90
2024-02-26T20:43:36.701Z,9.00
2024-02-26T20:48:40.379Z,9.10
2024-02-26T20:53:45.314Z,9.20
2024-02-26T20:58:48.805Z,9.40
2024-02-26T21:03:52.413Z,9.50
2024-02-26T21:08:57.076Z,9.60
2024-02-26T21:14:00.847Z,9.70
2024-02-26T21:19:06.996Z,9.70
2024-02-26T21:24:10.771Z,9.80
2024-02-26T21:29:14.238Z,9.80
2024-02-26T21:34:18.468Z,9.80
2024-02-26T21:39:22.072Z,9.80
2024-02-26T21:44:25.512Z,9.90
2024-02-26T21:49:29.080Z,9.90
2024-02-26T21:54:36.984Z,10.00
2024-02-26T21:59:40.444Z,10.00
2024-02-26T22:04:43.960Z,10.00
2024-02-26T22:09:47.449Z,10.00
2024-02-26T22:14:51.229Z,9.90
2024-02-26T22:19:55.008Z,9.90
2024-02-26T22:24:58.566Z,9.80
2024-02-26T22:30:03.343Z,9.80
2024-02-26T22:35:07.205Z,9.70
2024-02-26T22:40:11.459Z,9.60
2024-02-26T22:45:16.340Z,9.60
2024-02-26T22:50:28.987Z,9.60
2024-02-26T22:55:32.436Z,9.60
2024-02-26T23:00:37.012Z,9.60
2024-02-26T23:05:40.610Z,9.60
2024-02-26T23:10:44.255Z,9.60
2024-02-26T23:15:47.835Z,9.70
2024-02-26T23:20:51.448Z,9.70
2024-02-26T23:25:54.874Z,9.80
2024-02-26T23:30:58.614Z,9.80
2024-02-26T23:36:02.161Z,9.90
2024-02-26T23:41:05.547Z,10.00
2024-02-26T23:46:10.224Z,10.20
2024-02-26T23:51:13.745Z,10.30
2024-02-26T23:56:17.134Z,10.30
